Finnhawk — OJNL — position and weather

sailwx.info

Track history (hours):
 
Tides and Currents Weather Stations Pressure Air Temp Water Temp Dewpoint Dewpoint Depression Visibility Wind Speed Wind Dir Waves Ship Positions

Finnhawk

Last reported at 2014-Oct-22 02:33 UTC. Time now 2014-Oct-23 10:22 UTC.
Position N 59°34' E 021°17'.

Length 163 m; draft 6.3 m.

Type: Ship. MMSI: 230007000.

Date/timePositionNaut miles runAvg speedWind from/ knotsBaromVisibWave heightAir tempDewpointWater temp
2014-Oct-22 02:33N 59°34' E 021°17'2019.8
2014-Oct-22 01:33N 59°33' E 021°56'2919.7
2014-Oct-22 00:04N 59°37' E 022°53'1119.9
2014-Oct-21 23:32N 59°39' E 023°13'2719.6
2014-Oct-21 22:10N 59°46' E 024°05'1219.7
2014-Oct-21 21:34N 59°48' E 024°28'5819.2
2014-Oct-21 18:33N 60°08' E 026°17'1717.4
2014-Oct-21 17:33N 60°21' E 026°39'1211.9
2014-Oct-21 16:34N 60°29' E 026°57'0 0.0
2014-Oct-21 15:33N 60°29' E 026°57'0 0.0
2014-Oct-21 14:33N 60°29' E 026°57'0 0.0
2014-Oct-21 13:33N 60°29' E 026°57'0 0.0
2014-Oct-21 12:33N 60°29' E 026°57'0 0.0
2014-Oct-21 11:33N 60°29' E 026°57'0 0.0
2014-Oct-21 10:33N 60°29' E 026°57'0 0.0
2014-Oct-21 09:33N 60°29' E 026°57'0 0.0
2014-Oct-21 08:33N 60°29' E 026°57'0 0.0
2014-Oct-21 07:33N 60°29' E 026°57'0 0.0
2014-Oct-21 06:33N 60°29' E 026°57'0 0.0
2014-Oct-21 05:33N 60°29' E 026°57'0 0.0
2014-Oct-21 04:33N 60°29' E 026°57'0 0.0
2014-Oct-21 03:33N 60°29' E 026°57'0 0.0
2014-Oct-21 02:33N 60°29' E 026°57'9 9.3
2014-Oct-21 01:33N 60°22' E 026°44'1716.6
2014-Oct-21 00:34N 60°10' E 026°21'3611.3
2014-Oct-20 21:24N 60°03' E 025°11'1011.2
2014-Oct-20 20:33N 60°13' E 025°12'0 0.2
2014-Oct-20 19:31N 60°13' E 025°12'0 0.0
2014-Oct-20 18:31N 60°13' E 025°12'0 0.0
2014-Oct-20 17:31N 60°13' E 025°12'0 0.0
2014-Oct-20 16:31N 60°13' E 025°12'0 0.0
2014-Oct-20 15:31N 60°13' E 025°12'0 0.0
2014-Oct-20 14:31N 60°13' E 025°12'3 3.4
2014-Oct-20 13:34N 60°10' E 025°13'2417.9
2014-Oct-20 12:15N 59°48' E 024°54'1818.2
2014-Oct-20 11:15N 59°43' E 024°19'1318.5
2014-Oct-20 10:33N 59°40' E 023°55'32018.8
2014-Oct-19 17:33N 56°01' E 016°36'2019.5
2014-Oct-19 16:32N 55°50' E 016°06'2019.5
2014-Oct-19 15:29N 55°40' E 015°35'1819.7
2014-Oct-19 14:33N 55°31' E 015°06'1919.6
2014-Oct-19 13:34N 55°21' E 014°37'1918.6
2014-Oct-19 12:33N 55°10' E 014°10'1919.0
2014-Oct-19 11:33N 55°12' E 013°37'1919.4
2014-Oct-19 10:34N 55°14' E 013°03'1615.8
2014-Oct-19 09:33N 55°22' E 012°39'1514.8
2014-Oct-19 08:33N 55°36' E 012°42'1010.3
2014-Oct-19 07:33N 55°47' E 012°42'1717.1
2014-Oct-19 06:33N 56°04' E 012°37'1818.4
2014-Oct-19 05:33N 56°14' E 012°10'1817.8
2014-Oct-19 04:33N 56°31' E 011°58'1918.7
2014-Oct-19 03:33N 56°49' E 011°50'1918.9
2014-Oct-19 02:33N 57°07' E 011°37'1818.1
2014-Oct-19 01:33N 57°23' E 011°25'1818.0
2014-Oct-19 00:33N 57°37' E 011°04'1918.8
2014-Oct-18 23:33N 57°46' E 010°33'5020.2
2014-Oct-18 21:06N 57°25' E 009°10'1120.0
2014-Oct-18 20:32N 57°19' E 008°52'2019.8
2014-Oct-18 19:32N 57°06' E 008°24'9919.5
2014-Oct-18 14:29N 55°44' E 006°45'2419.6
2014-Oct-18 13:16N 55°24' E 006°21'1419.6
2014-Oct-18 12:33N 55°12' E 006°08'2219.7
2014-Oct-18 11:27N 54°55' E 005°46'1719.7
2014-Oct-18 10:33N 54°40' E 005°29'2019.6
2014-Oct-18 09:33N 54°24' E 005°11'2019.6
2014-Oct-18 08:33N 54°07' E 004°53'2019.6
2014-Oct-18 07:33N 53°47' E 004°51'1919.0
2014-Oct-18 06:33N 53°29' E 004°44'1818.3
2014-Oct-18 05:33N 53°12' E 004°31'1919.0
2014-Oct-18 04:33N 52°55' E 004°17'1818.4
2014-Oct-18 03:33N 52°37' E 004°19'1413.7
2014-Oct-18 02:34N 52°28' E 004°36'1 1.0
2014-Oct-18 01:34N 52°28' E 004°38'4 3.5
2014-Oct-18 00:34N 52°26' E 004°43'5 4.8
2014-Oct-17 23:34N 52°24' E 004°50'0 0.0
2014-Oct-17 22:32N 52°24' E 004°50'0 0.0
2014-Oct-17 21:32N 52°24' E 004°50'0 0.0
2014-Oct-17 20:32N 52°24' E 004°50'0 0.0
2014-Oct-17 19:32N 52°24' E 004°50'0 0.0
2014-Oct-17 18:32N 52°24' E 004°50'0 0.0
2014-Oct-17 17:32N 52°24' E 004°50'0 0.0
2014-Oct-17 16:33N 52°24' E 004°50'0 0.0
2014-Oct-17 15:33N 52°24' E 004°50'0 0.0
2014-Oct-17 14:33N 52°24' E 004°50'0 0.0
2014-Oct-17 13:33N 52°24' E 004°50'4 3.9
2014-Oct-17 12:33N 52°26' E 004°44'5 5.2
2014-Oct-17 11:34N 52°28' E 004°36'7 7.3
2014-Oct-17 10:33N 52°28' E 004°24'1615.9
2014-Oct-17 09:34N 52°28' E 003°58'7719.2
2014-Oct-17 05:32N 51°46' E 002°13'1919.6
2014-Oct-17 04:34N 51°35' E 001°47'1716.8
2014-Oct-17 03:34N 51°28' E 001°22'1717.4
2014-Oct-17 02:34N 51°29' E 000°54'1716.9
2014-Oct-17 01:33N 51°28' E 000°27'4 4.3
2014-Oct-17 00:33N 51°27' E 000°20'1 0.6
2014-Oct-16 23:34N 51°27' E 000°21'0 0.0
2014-Oct-16 22:34N 51°27' E 000°21'0 0.0
2014-Oct-16 21:33N 51°27' E 000°21'0 0.0
2014-Oct-16 20:33N 51°27' E 000°21'0 0.0
2014-Oct-16 19:33N 51°27' E 000°21'0 0.0
2014-Oct-16 18:33N 51°27' E 000°21'0 0.0
2014-Oct-16 17:33N 51°27' E 000°21'0 0.0
2014-Oct-16 16:34N 51°27' E 000°21'0 0.0
2014-Oct-16 15:33N 51°27' E 000°21'0 0.0
2014-Oct-16 14:33N 51°27' E 000°21'0 0.0
2014-Oct-16 13:33N 51°27' E 000°21'0 0.5
2014-Oct-16 12:34N 51°27' E 000°21'1 1.2
2014-Oct-16 11:33N 51°27' E 000°23'8 8.3
2014-Oct-16 10:33N 51°30' E 000°35'1010.3
2014-Oct-16 09:33N 51°29' E 000°51'1312.9
2014-Oct-16 08:34N 51°29' E 001°12'1212.2
2014-Oct-16 07:33N 51°27' E 001°31'1615.9
2014-Oct-16 06:33N 51°40' E 001°45'1817.8
2014-Oct-16 05:33N 51°58' E 001°46'1918.0
2014-Oct-16 04:31N 52°16' E 001°52'1818.6
2014-Oct-16 03:33N 52°33' E 001°59'1716.6
2014-Oct-16 02:33N 52°49' E 001°50'1919.3
2014-Oct-16 01:33N 52°58' E 001°22'3818.4
2014-Oct-15 23:31N 53°23' E 000°34'1616.4
2014-Oct-15 22:33N 53°33' E 000°13'1413.9
2014-Oct-15 21:34N 53°38' W 000°09'8 8.1
2014-Oct-15 20:33N 53°44' W 000°16'0 0.3
2014-Oct-15 19:32N 53°44' W 000°16'0 0.0
2014-Oct-15 18:32N 53°44' W 000°16'0 0.0
2014-Oct-15 17:32N 53°44' W 000°16'0 0.0
2014-Oct-15 16:32N 53°44' W 000°16'0 0.0
2014-Oct-15 15:32N 53°44' W 000°16'0 0.0
2014-Oct-15 14:32N 53°44' W 000°16'0 0.0
2014-Oct-15 13:32N 53°44' W 000°16'0 0.0
2014-Oct-15 12:32N 53°44' W 000°16'0 0.2
2014-Oct-15 11:34N 53°45' W 000°16'1 1.2
2014-Oct-15 10:33N 53°43' W 000°15'6 6.2
2014-Oct-15 09:33N 53°38' W 000°11'0 0.3
2014-Oct-15 08:33N 53°38' W 000°12'0 0.0
2014-Oct-15 07:33N 53°38' W 000°12'0 0.0
2014-Oct-15 06:33N 53°38' W 000°12'0 0.1
2014-Oct-15 05:34N 53°38' W 000°12'1 0.6
2014-Oct-15 04:34N 53°38' W 000°11'1111.3
2014-Oct-15 03:33N 53°34' E 000°07'1111.0
2014-Oct-15 02:33N 53°39' E 000°23'41118.7
2014-Oct-14 04:33N 57°44' E 010°09'1918.6
2014-Oct-14 03:33N 57°48' E 010°44'1918.8
2014-Oct-14 02:33N 57°36' E 011°11'1818.3
2014-Oct-14 01:33N 57°21' E 011°31'1918.5
2014-Oct-14 00:33N 57°04' E 011°43'1918.5
2014-Oct-13 23:32N 56°46' E 011°55'1918.0
2014-Oct-13 22:30N 56°28' E 012°04'1718.5
2014-Oct-13 21:33N 56°14' E 012°23'1918.8
2014-Oct-13 20:34N 55°59' E 012°42'1717.0
2014-Oct-13 19:34N 55°42' E 012°41'1413.5
2014-Oct-13 18:33N 55°28' E 012°42'1313.5
2014-Oct-13 17:34N 55°16' E 012°52'1918.9
2014-Oct-13 16:33N 55°15' E 013°25'1919.3
2014-Oct-13 15:33N 55°13' E 013°59'1717.1
2014-Oct-13 14:33N 55°21' E 014°26'1919.1
2014-Oct-13 13:33N 55°33' E 014°51'2519.2
2014-Oct-13 12:14N 55°46' E 015°30'1419.0
2014-Oct-13 11:30N 55°53' E 015°52'2019.0
2014-Oct-13 10:28N 56°02' E 016°23'30818.2
2014-Oct-12 17:33N 59°37' E 023°15'2019.1
2014-Oct-12 16:31N 59°44' E 023°52'1919.1
2014-Oct-12 15:31N 59°50' E 024°28'2018.7
2014-Oct-12 14:28N 59°58' E 025°03'  
Track history (hours):
 
Tides and Currents Weather Stations Pressure Air Temp Water Temp Dewpoint Dewpoint Depression Visibility Wind Speed Wind Dir Waves Ship Positions

Finnhawk

Last reported at 2014-Oct-22 02:33 UTC. Time now 2014-Oct-23 10:22 UTC.
Position N 59°34' E 021°17'.

Length 163 m; draft 6.3 m.

Type: Ship. MMSI: 230007000.

Date/timePositionNaut miles runAvg speedWind from/ knotsBaromVisibWave heightAir tempDewpointWater temp
2014-Oct-22 02:33N 59°34' E 021°17'2019.8
2014-Oct-22 01:33N 59°33' E 021°56'2919.7
2014-Oct-22 00:04N 59°37' E 022°53'1119.9
2014-Oct-21 23:32N 59°39' E 023°13'2719.6
2014-Oct-21 22:10N 59°46' E 024°05'1219.7
2014-Oct-21 21:34N 59°48' E 024°28'5819.2
2014-Oct-21 18:33N 60°08' E 026°17'1717.4
2014-Oct-21 17:33N 60°21' E 026°39'1211.9
2014-Oct-21 16:34N 60°29' E 026°57'0 0.0
2014-Oct-21 15:33N 60°29' E 026°57'0 0.0
2014-Oct-21 14:33N 60°29' E 026°57'0 0.0
2014-Oct-21 13:33N 60°29' E 026°57'0 0.0
2014-Oct-21 12:33N 60°29' E 026°57'0 0.0
2014-Oct-21 11:33N 60°29' E 026°57'0 0.0
2014-Oct-21 10:33N 60°29' E 026°57'0 0.0
2014-Oct-21 09:33N 60°29' E 026°57'0 0.0
2014-Oct-21 08:33N 60°29' E 026°57'0 0.0
2014-Oct-21 07:33N 60°29' E 026°57'0 0.0
2014-Oct-21 06:33N 60°29' E 026°57'0 0.0
2014-Oct-21 05:33N 60°29' E 026°57'0 0.0
2014-Oct-21 04:33N 60°29' E 026°57'0 0.0
2014-Oct-21 03:33N 60°29' E 026°57'0 0.0
2014-Oct-21 02:33N 60°29' E 026°57'9 9.3
2014-Oct-21 01:33N 60°22' E 026°44'1716.6
2014-Oct-21 00:34N 60°10' E 026°21'3611.3
2014-Oct-20 21:24N 60°03' E 025°11'1011.2
2014-Oct-20 20:33N 60°13' E 025°12'0 0.2
2014-Oct-20 19:31N 60°13' E 025°12'0 0.0
2014-Oct-20 18:31N 60°13' E 025°12'0 0.0
2014-Oct-20 17:31N 60°13' E 025°12'0 0.0
2014-Oct-20 16:31N 60°13' E 025°12'0 0.0
2014-Oct-20 15:31N 60°13' E 025°12'0 0.0
2014-Oct-20 14:31N 60°13' E 025°12'3 3.4
2014-Oct-20 13:34N 60°10' E 025°13'2417.9
2014-Oct-20 12:15N 59°48' E 024°54'1818.2
2014-Oct-20 11:15N 59°43' E 024°19'1318.5
2014-Oct-20 10:33N 59°40' E 023°55'32018.8
2014-Oct-19 17:33N 56°01' E 016°36'2019.5
2014-Oct-19 16:32N 55°50' E 016°06'2019.5
2014-Oct-19 15:29N 55°40' E 015°35'1819.7
2014-Oct-19 14:33N 55°31' E 015°06'1919.6
2014-Oct-19 13:34N 55°21' E 014°37'1918.6
2014-Oct-19 12:33N 55°10' E 014°10'1919.0
2014-Oct-19 11:33N 55°12' E 013°37'1919.4
2014-Oct-19 10:34N 55°14' E 013°03'1615.8
2014-Oct-19 09:33N 55°22' E 012°39'1514.8
2014-Oct-19 08:33N 55°36' E 012°42'1010.3
2014-Oct-19 07:33N 55°47' E 012°42'1717.1
2014-Oct-19 06:33N 56°04' E 012°37'1818.4
2014-Oct-19 05:33N 56°14' E 012°10'1817.8
2014-Oct-19 04:33N 56°31' E 011°58'1918.7
2014-Oct-19 03:33N 56°49' E 011°50'1918.9
2014-Oct-19 02:33N 57°07' E 011°37'1818.1
2014-Oct-19 01:33N 57°23' E 011°25'1818.0
2014-Oct-19 00:33N 57°37' E 011°04'1918.8
2014-Oct-18 23:33N 57°46' E 010°33'5020.2
2014-Oct-18 21:06N 57°25' E 009°10'1120.0
2014-Oct-18 20:32N 57°19' E 008°52'2019.8
2014-Oct-18 19:32N 57°06' E 008°24'9919.5
2014-Oct-18 14:29N 55°44' E 006°45'2419.6
2014-Oct-18 13:16N 55°24' E 006°21'1419.6
2014-Oct-18 12:33N 55°12' E 006°08'2219.7
2014-Oct-18 11:27N 54°55' E 005°46'1719.7
2014-Oct-18 10:33N 54°40' E 005°29'2019.6
2014-Oct-18 09:33N 54°24' E 005°11'2019.6
2014-Oct-18 08:33N 54°07' E 004°53'2019.6
2014-Oct-18 07:33N 53°47' E 004°51'1919.0
2014-Oct-18 06:33N 53°29' E 004°44'1818.3
2014-Oct-18 05:33N 53°12' E 004°31'1919.0
2014-Oct-18 04:33N 52°55' E 004°17'1818.4
2014-Oct-18 03:33N 52°37' E 004°19'1413.7
2014-Oct-18 02:34N 52°28' E 004°36'1 1.0
2014-Oct-18 01:34N 52°28' E 004°38'4 3.5
2014-Oct-18 00:34N 52°26' E 004°43'5 4.8
2014-Oct-17 23:34N 52°24' E 004°50'0 0.0
2014-Oct-17 22:32N 52°24' E 004°50'0 0.0
2014-Oct-17 21:32N 52°24' E 004°50'0 0.0
2014-Oct-17 20:32N 52°24' E 004°50'0 0.0
2014-Oct-17 19:32N 52°24' E 004°50'0 0.0
2014-Oct-17 18:32N 52°24' E 004°50'0 0.0
2014-Oct-17 17:32N 52°24' E 004°50'0 0.0
2014-Oct-17 16:33N 52°24' E 004°50'0 0.0
2014-Oct-17 15:33N 52°24' E 004°50'0 0.0
2014-Oct-17 14:33N 52°24' E 004°50'0 0.0
2014-Oct-17 13:33N 52°24' E 004°50'4 3.9
2014-Oct-17 12:33N 52°26' E 004°44'5 5.2
2014-Oct-17 11:34N 52°28' E 004°36'7 7.3
2014-Oct-17 10:33N 52°28' E 004°24'1615.9
2014-Oct-17 09:34N 52°28' E 003°58'7719.2
2014-Oct-17 05:32N 51°46' E 002°13'1919.6
2014-Oct-17 04:34N 51°35' E 001°47'1716.8
2014-Oct-17 03:34N 51°28' E 001°22'1717.4
2014-Oct-17 02:34N 51°29' E 000°54'1716.9
2014-Oct-17 01:33N 51°28' E 000°27'4 4.3
2014-Oct-17 00:33N 51°27' E 000°20'1 0.6
2014-Oct-16 23:34N 51°27' E 000°21'0 0.0
2014-Oct-16 22:34N 51°27' E 000°21'0 0.0
2014-Oct-16 21:33N 51°27' E 000°21'0 0.0
2014-Oct-16 20:33N 51°27' E 000°21'0 0.0
2014-Oct-16 19:33N 51°27' E 000°21'0 0.0
2014-Oct-16 18:33N 51°27' E 000°21'0 0.0
2014-Oct-16 17:33N 51°27' E 000°21'0 0.0
2014-Oct-16 16:34N 51°27' E 000°21'0 0.0
2014-Oct-16 15:33N 51°27' E 000°21'0 0.0
2014-Oct-16 14:33N 51°27' E 000°21'0 0.0
2014-Oct-16 13:33N 51°27' E 000°21'0 0.5
2014-Oct-16 12:34N 51°27' E 000°21'1 1.2
2014-Oct-16 11:33N 51°27' E 000°23'8 8.3
2014-Oct-16 10:33N 51°30' E 000°35'1010.3
2014-Oct-16 09:33N 51°29' E 000°51'1312.9
2014-Oct-16 08:34N 51°29' E 001°12'1212.2
2014-Oct-16 07:33N 51°27' E 001°31'1615.9
2014-Oct-16 06:33N 51°40' E 001°45'1817.8
2014-Oct-16 05:33N 51°58' E 001°46'1918.0
2014-Oct-16 04:31N 52°16' E 001°52'1818.6
2014-Oct-16 03:33N 52°33' E 001°59'1716.6
2014-Oct-16 02:33N 52°49' E 001°50'1919.3
2014-Oct-16 01:33N 52°58' E 001°22'3818.4
2014-Oct-15 23:31N 53°23' E 000°34'1616.4
2014-Oct-15 22:33N 53°33' E 000°13'1413.9
2014-Oct-15 21:34N 53°38' W 000°09'8 8.1
2014-Oct-15 20:33N 53°44' W 000°16'0 0.3
2014-Oct-15 19:32N 53°44' W 000°16'0 0.0
2014-Oct-15 18:32N 53°44' W 000°16'0 0.0
2014-Oct-15 17:32N 53°44' W 000°16'0 0.0
2014-Oct-15 16:32N 53°44' W 000°16'0 0.0
2014-Oct-15 15:32N 53°44' W 000°16'0 0.0
2014-Oct-15 14:32N 53°44' W 000°16'0 0.0
2014-Oct-15 13:32N 53°44' W 000°16'0 0.0
2014-Oct-15 12:32N 53°44' W 000°16'0 0.2
2014-Oct-15 11:34N 53°45' W 000°16'1 1.2
2014-Oct-15 10:33N 53°43' W 000°15'6 6.2
2014-Oct-15 09:33N 53°38' W 000°11'0 0.3
2014-Oct-15 08:33N 53°38' W 000°12'0 0.0
2014-Oct-15 07:33N 53°38' W 000°12'0 0.0
2014-Oct-15 06:33N 53°38' W 000°12'0 0.1
2014-Oct-15 05:34N 53°38' W 000°12'1 0.6
2014-Oct-15 04:34N 53°38' W 000°11'1111.3
2014-Oct-15 03:33N 53°34' E 000°07'1111.0
2014-Oct-15 02:33N 53°39' E 000°23'41118.7
2014-Oct-14 04:33N 57°44' E 010°09'1918.6
2014-Oct-14 03:33N 57°48' E 010°44'1918.8
2014-Oct-14 02:33N 57°36' E 011°11'1818.3
2014-Oct-14 01:33N 57°21' E 011°31'1918.5
2014-Oct-14 00:33N 57°04' E 011°43'1918.5
2014-Oct-13 23:32N 56°46' E 011°55'1918.0
2014-Oct-13 22:30N 56°28' E 012°04'1718.5
2014-Oct-13 21:33N 56°14' E 012°23'1918.8
2014-Oct-13 20:34N 55°59' E 012°42'1717.0
2014-Oct-13 19:34N 55°42' E 012°41'1413.5
2014-Oct-13 18:33N 55°28' E 012°42'1313.5
2014-Oct-13 17:34N 55°16' E 012°52'1918.9
2014-Oct-13 16:33N 55°15' E 013°25'1919.3
2014-Oct-13 15:33N 55°13' E 013°59'1717.1
2014-Oct-13 14:33N 55°21' E 014°26'1919.1
2014-Oct-13 13:33N 55°33' E 014°51'2519.2
2014-Oct-13 12:14N 55°46' E 015°30'1419.0
2014-Oct-13 11:30N 55°53' E 015°52'2019.0
2014-Oct-13 10:28N 56°02' E 016°23'30818.2
2014-Oct-12 17:33N 59°37' E 023°15'2019.1
2014-Oct-12 16:31N 59°44' E 023°52'1919.1
2014-Oct-12 15:31N 59°50' E 024°28'2018.7
2014-Oct-12 14:28N 59°58' E 025°03'  

Dump ship's entire track history